Archival Weather

Alykel

Alykel, Russia (UOOO)

Report from: Tuesday, November 21, 2023 11:30 PM UTC
Current time: Friday, July 19, 2024 1:58 AM UTC

Current weather – Weather history – Daily summaries
Weather forecast

Present weatherLight snow, drifting snow
Temperature-25.0°C (-13.0°F)
Wind chill-38.0°C (-36.5°F)
Dew point-28.0°C (-18.4°F)
Winds 13.6 kts (7 m/s, 15.7 mph) South (170°)
Visibility4.3 mi. (7 km)
Altimeter30.42 in.Hg (1030 mB)
Precip. events QF 10:36 AM
Relative humidity76 %
Density altitude-5,751 ft. (-1,753 m)
Remarks No significant changes expected in the next two hours
Flight conditions Marginal Visual Meteorological Conditions
Raw dataUOOO 212330Z 17007MPS 7000 -SN DRSN NSC M25/M28 Q1030 R19/35//60 NOSIG RMK QFE756/1008
An error has occurred. This application may no longer respond until reloaded. Reload 🗙